AKDT,Max TemperatureF,Mean TemperatureF,Min TemperatureF,Max Dew PointF,MeanDew PointF,Min DewpointF,Max Humidity, Mean Humidity, Min Humidity, Max Sea Level PressureIn, Mean Sea Level PressureIn, Min Sea Level PressureIn, Max VisibilityMiles, Mean VisibilityMiles, Min VisibilityMiles, Max Wind SpeedMPH, Mean Wind SpeedMPH, Max Gust SpeedMPH,PrecipitationIn, CloudCover, Events, WindDirDegrees
2011-9-1,59,50,42,48,45,41,93,83,63,29.91,29.87,29.79,20,10,4,5,2,,0.00,6,,18
2011-9-2,55,44,32,50,42,30,100,91,77,29.88,29.80,29.70,20,18,7,6,1,,0.00,7,Rain,328
2011-9-3,57,50,42,48,45,41,100,85,67,29.75,29.66,29.56,20,18,7,6,2,,0.00,7,Rain,161
2011-9-4,51,45,39,46,44,37,100,90,82,29.54,29.49,29.45,20,16,10,6,1,,0.00,8,Rain,210
2011-9-5,57,48,39,48,43,39,100,82,63,29.34,29.17,28.91,20,20,20,8,2,,0.00,8,,103
2011-9-6,57,50,44,48,44,41,93,79,59,29.45,29.25,29.08,20,20,20,5,1,,0.00,8,Rain,140
2011-9-7,60,50,41,45,43,39,93,75,55,29.99,29.85,29.71,,,,9,1,,0.00,7,,65
2011-9-8,64,47,30,46,39,28,100,76,52,30.13,30.00,29.83,,,,7,3,,0.00,4,,193
2011-9-9,55,42,28,45,38,28,100,82,67,30.12,30.02,29.91,20,20,20,5,1,,0.00,7,,46
2011-9-10,62,48,35,46,40,34,100,81,45,30.27,30.25,30.22,,,,9,1,,0.00,6,,140
2011-9-11,64,45,26,48,36,23,100,79,52,30.30,30.20,30.10,,,,7,1,,0.00,1,,105
2011-9-12,66,54,41,46,41,30,93,67,41,30.07,29.92,29.76,,,,5,3,,0.00,7,,315
2011-9-13,64,50,37,48,43,36,93,73,56,29.81,29.78,29.74,7,7,7,4,1,,0.00,7,,35
2011-9-14,53,48,44,50,45,39,100,87,76,29.78,29.76,29.73,7,7,7,7,2,,0.00,6,,22
2011-9-15,57,47,37,43,39,34,93,78,51,29.79,29.74,29.67,7,7,7,5,2,,0.00,7,,164
2011-9-16,57,44,30,43,37,28,100,81,55,29.68,29.64,29.57,7,7,7,4,1,,0.00,7,,110
2011-9-17,50,42,33,46,41,34,100,92,82,29.61,29.58,29.57,10,8,7,6,2,,0.00,8,Rain,246
2011-9-18,55,42,28,43,35,27,93,80,58,29.51,29.49,29.47,20,14,7,6,1,,0.00,5,,130
2011-9-19,55,46,37,43,39,36,93,77,58,29.59,29.45,29.13,20,16,7,6,1,,0.00,8,,275
2011-9-20,53,48,41,48,44,41,100,95,82,29.14,29.12,29.07,20,13,7,8,3,,0.00,7,Rain,230
2011-9-21,51,42,33,43,41,34,100,85,67,29.02,28.93,28.85,7,4,0,7,4,,0.00,8,Fog,34
2011-9-22,51,46,35,48,42,34,100,92,82,29.43,29.35,29.25,15,11,7,4,1,,0.00,7,Rain,90
2011-9-23,50,38,26,41,33,23,100,79,65,29.40,29.27,29.19,7,7,7,6,1,,0.00,6,,240
2011-9-24,53,42,32,39,35,30,93,76,54,29.65,29.62,29.59,7,7,7,8,1,,0.00,5,,152
2011-9-25,53,36,19,34,25,16,93,81,47,29.52,29.48,29.43,7,7,7,7,1,,0.00,2,,190
2011-9-26,53,35,17,37,29,16,93,70,54,29.57,29.47,29.36,,,,7,2,,0.00,1,,146
2011-9-27,48,32,17,39,26,14,86,77,65,29.66,29.50,29.40,7,7,7,5,1,,0.00,6,,208
2011-9-28,44,38,33,37,34,32,100,84,71,29.83,29.81,29.78,7,7,7,6,2,,0.00,7,Rain,150
2011-9-29,46,38,28,36,31,25,93,80,66,29.69,29.61,29.46,7,7,7,6,1,,0.00,6,,166
2011-9-30,48,37,26,34,29,23,93,74,57,29.70,29.57,29.47,7,7,7,4,1,,0.00,7,,59